Terminal Aerodrome Forecast
Issued by NWS Buffalo, NY

Home | Current Version | Previous Version | Text Only | Print | Product List | Glossary On
Versions: 1 2 3 4 5 6 7 8 9 10 11 12 13 14 15 16 17 18 19 20 21 22 23 24 25
000
FTUS41 KBUF 230549
TAFROC
TAF
KROC 230549Z 2306/2406 21011KT P6SM BKN100 WS020/24040KT
     FM230800 22010KT P6SM BKN060
     FM231700 22012G20KT 6SM SHRA VCTS OVC035CB
     FM232100 26017G24KT P6SM VCSH OVC050
     FM240000 23012G23KT 5SM SHRA VCTS BKN050CB OVC080
     FM240200 26011KT P6SM BKN050=

USA.gov is the U.S. government's official web portal to all federal, state and local government web resources and services.